sensor_id;sensor_type;location;lat;lon;timestamp;pressure;altitude;pressure_sealevel;temperature;humidity
64679;BME280;51094;53.864;27.676;2023-04-25T00:02:01;98380.63;;;10.50;45.03
64679;BME280;51094;53.864;27.676;2023-04-25T00:04:29;98476.59;;;11.14;44.90
64679;BME280;51094;53.864;27.676;2023-04-25T00:07:00;98416.03;;;10.72;45.00
64679;BME280;51094;53.864;27.676;2023-04-25T00:09:31;98451.06;;;10.98;44.84
64679;BME280;51094;53.864;27.676;2023-04-25T00:12:00;98490.03;;;11.19;45.18
64679;BME280;51094;53.864;27.676;2023-04-25T00:14:29;98498.13;;;11.16;44.72
64679;BME280;51094;53.864;27.676;2023-04-25T00:16:56;98442.13;;;10.91;44.90
64679;BME280;51094;53.864;27.676;2023-04-25T00:19:24;98439.53;;;10.91;45.20
64679;BME280;51094;53.864;27.676;2023-04-25T00:21:51;98491.25;;;11.15;44.90
64679;BME280;51094;53.864;27.676;2023-04-25T00:24:18;98499.38;;;11.22;45.31
64679;BME280;51094;53.864;27.676;2023-04-25T00:26:44;98401.03;;;10.55;45.27
64679;BME280;51094;53.864;27.676;2023-04-25T00:29:11;98479.84;;;11.07;45.14
64679;BME280;51094;53.864;27.676;2023-04-25T00:31:38;98492.38;;;11.22;44.99
64679;BME280;51094;53.864;27.676;2023-04-25T00:34:06;98495.94;;;11.21;45.51
64679;BME280;51094;53.864;27.676;2023-04-25T00:36:34;98438.13;;;10.87;45.71
64679;BME280;51094;53.864;27.676;2023-04-25T00:39:01;98470.25;;;11.07;44.74
64679;BME280;51094;53.864;27.676;2023-04-25T00:41:29;98415.91;;;10.74;45.09
64679;BME280;51094;53.864;27.676;2023-04-25T00:43:57;98446.69;;;10.99;44.98
64679;BME280;51094;53.864;27.676;2023-04-25T00:46:25;98460.19;;;10.93;45.37
64679;BME280;51094;53.864;27.676;2023-04-25T00:48:52;98491.25;;;11.15;45.73
64679;BME280;51094;53.864;27.676;2023-04-25T00:51:20;98474.78;;;11.05;45.55
64679;BME280;51094;53.864;27.676;2023-04-25T00:53:49;98494.69;;;11.16;45.28
64679;BME280;51094;53.864;27.676;2023-04-25T00:56:17;98498.19;;;11.05;45.19
64679;BME280;51094;53.864;27.676;2023-04-25T00:58:45;98448.66;;;10.86;45.29
64679;BME280;51094;53.864;27.676;2023-04-25T01:01:12;98432.47;;;10.73;45.23
64679;BME280;51094;53.864;27.676;2023-04-25T01:03:40;98322.78;;;10.07;45.54
64679;BME280;51094;53.864;27.676;2023-04-25T01:06:12;98489.31;;;11.08;45.79
64679;BME280;51094;53.864;27.676;2023-04-25T01:08:39;98493.69;;;11.07;45.13
64679;BME280;51094;53.864;27.676;2023-04-25T01:11:06;98483.41;;;11.06;46.05
64679;BME280;51094;53.864;27.676;2023-04-25T01:13:33;98479.09;;;10.95;45.96
64679;BME280;51094;53.864;27.676;2023-04-25T01:16:04;98489.25;;;10.98;46.11
64679;BME280;51094;53.864;27.676;2023-04-25T01:18:31;98483.47;;;10.94;46.53
64679;BME280;51094;53.864;27.676;2023-04-25T01:21:12;98389.03;;;10.33;45.84
64679;BME280;51094;53.864;27.676;2023-04-25T01:23:40;98485.06;;;10.86;46.49
64679;BME280;51094;53.864;27.676;2023-04-25T01:26:11;98490.00;;;10.79;46.49
64679;BME280;51094;53.864;27.676;2023-04-25T01:28:39;98485.31;;;10.73;46.43
64679;BME280;51094;53.864;27.676;2023-04-25T01:31:09;98494.19;;;10.71;47.04
64679;BME280;51094;53.864;27.676;2023-04-25T01:33:41;98483.91;;;10.69;46.82
64679;BME280;51094;53.864;27.676;2023-04-25T01:36:08;98443.34;;;10.36;47.58
64679;BME280;51094;53.864;27.676;2023-04-25T01:38:35;98446.19;;;10.33;47.97
64679;BME280;51094;53.864;27.676;2023-04-25T01:41:02;98422.19;;;10.09;47.78
64679;BME280;51094;53.864;27.676;2023-04-25T01:43:30;98473.13;;;10.53;47.92
64679;BME280;51094;53.864;27.676;2023-04-25T01:46:00;98488.25;;;10.48;47.97
64679;BME280;51094;53.864;27.676;2023-04-25T01:48:26;98474.44;;;10.47;46.93
64679;BME280;51094;53.864;27.676;2023-04-25T01:50:54;98416.97;;;10.09;48.07
64679;BME280;51094;53.864;27.676;2023-04-25T01:53:20;98472.75;;;10.37;48.17
64679;BME280;51094;53.864;27.676;2023-04-25T01:55:47;98402.69;;;9.93;48.44
64679;BME280;51094;53.864;27.676;2023-04-25T01:58:18;98468.88;;;10.31;47.92
64679;BME280;51094;53.864;27.676;2023-04-25T02:01:10;98421.59;;;10.05;48.64
64679;BME280;51094;53.864;27.676;2023-04-25T02:03:44;98439.63;;;10.18;48.06
64679;BME280;51094;53.864;27.676;2023-04-25T02:06:23;98425.53;;;9.99;49.24
64679;BME280;51094;53.864;27.676;2023-04-25T02:08:52;98437.50;;;10.12;48.64
64679;BME280;51094;53.864;27.676;2023-04-25T02:11:19;98407.28;;;9.90;48.86
64679;BME280;51094;53.864;27.676;2023-04-25T02:13:55;98457.09;;;10.16;48.91
64679;BME280;51094;53.864;27.676;2023-04-25T02:16:52;98384.59;;;9.71;49.04
64679;BME280;51094;53.864;27.676;2023-04-25T02:19:19;98402.97;;;9.79;49.63
64679;BME280;51094;53.864;27.676;2023-04-25T02:21:46;98455.00;;;10.21;48.95
64679;BME280;51094;53.864;27.676;2023-04-25T02:24:13;98380.28;;;9.81;48.71
64679;BME280;51094;53.864;27.676;2023-04-25T02:26:40;98437.84;;;10.18;48.76
64679;BME280;51094;53.864;27.676;2023-04-25T02:29:08;98412.00;;;9.96;49.60
64679;BME280;51094;53.864;27.676;2023-04-25T02:31:35;98453.69;;;10.15;49.38
64679;BME280;51094;53.864;27.676;2023-04-25T02:34:02;98399.25;;;9.93;49.21
64679;BME280;51094;53.864;27.676;2023-04-25T02:36:29;98436.81;;;10.21;49.09
64679;BME280;51094;53.864;27.676;2023-04-25T02:38:58;98435.84;;;10.22;49.20
64679;BME280;51094;53.864;27.676;2023-04-25T02:41:26;98410.97;;;10.08;48.61
64679;BME280;51094;53.864;27.676;2023-04-25T02:43:54;98408.56;;;9.95;48.92
64679;BME280;51094;53.864;27.676;2023-04-25T02:46:21;98427.38;;;10.09;49.80
64679;BME280;51094;53.864;27.676;2023-04-25T02:49:03;98323.72;;;9.43;49.42
64679;BME280;51094;53.864;27.676;2023-04-25T02:51:30;98394.94;;;9.82;49.84
64679;BME280;51094;53.864;27.676;2023-04-25T02:53:58;98415.38;;;9.96;49.69
64679;BME280;51094;53.864;27.676;2023-04-25T02:56:25;98426.81;;;10.05;49.80
64679;BME280;51094;53.864;27.676;2023-04-25T02:58:53;98426.91;;;10.04;50.22
64679;BME280;51094;53.864;27.676;2023-04-25T03:01:20;98419.13;;;10.04;49.54
64679;BME280;51094;53.864;27.676;2023-04-25T03:03:47;98373.69;;;9.77;50.16
64679;BME280;51094;53.864;27.676;2023-04-25T03:06:15;98429.03;;;10.10;50.08
64679;BME280;51094;53.864;27.676;2023-04-25T03:08:42;98412.28;;;10.02;49.84
64679;BME280;51094;53.864;27.676;2023-04-25T03:11:10;98405.78;;;10.08;49.34
64679;BME280;51094;53.864;27.676;2023-04-25T03:13:40;98352.22;;;9.75;49.40
64679;BME280;51094;53.864;27.676;2023-04-25T03:16:08;98400.56;;;10.08;49.24
64679;BME280;51094;53.864;27.676;2023-04-25T03:18:35;98390.81;;;10.00;49.67
64679;BME280;51094;53.864;27.676;2023-04-25T03:21:02;98417.88;;;10.19;49.34
64679;BME280;51094;53.864;27.676;2023-04-25T03:23:30;98340.69;;;9.68;50.08
64679;BME280;51094;53.864;27.676;2023-04-25T03:25:57;98420.13;;;10.23;49.78
64679;BME280;51094;53.864;27.676;2023-04-25T03:28:24;98354.47;;;9.80;49.94
64679;BME280;51094;53.864;27.676;2023-04-25T03:30:52;98424.25;;;10.26;49.53
64679;BME280;51094;53.864;27.676;2023-04-25T03:33:18;98364.25;;;9.97;49.43
64679;BME280;51094;53.864;27.676;2023-04-25T03:35:45;98396.22;;;10.09;49.46
64679;BME280;51094;53.864;27.676;2023-04-25T03:38:12;98413.94;;;10.36;50.14
64679;BME280;51094;53.864;27.676;2023-04-25T03:40:40;98420.09;;;10.35;50.12
64679;BME280;51094;53.864;27.676;2023-04-25T03:43:27;98398.78;;;10.20;50.47
64679;BME280;51094;53.864;27.676;2023-04-25T03:46:00;98420.22;;;10.33;49.79
64679;BME280;51094;53.864;27.676;2023-04-25T03:48:27;98416.53;;;10.36;49.87
64679;BME280;51094;53.864;27.676;2023-04-25T03:50:54;98421.28;;;10.30;50.46
64679;BME280;51094;53.864;27.676;2023-04-25T03:53:21;98380.88;;;10.06;50.54
64679;BME280;51094;53.864;27.676;2023-04-25T03:56:08;98335.75;;;9.65;50.79
64679;BME280;51094;53.864;27.676;2023-04-25T03:58:37;98439.34;;;10.32;50.42
64679;BME280;51094;53.864;27.676;2023-04-25T04:01:05;98358.91;;;9.89;50.37
64679;BME280;51094;53.864;27.676;2023-04-25T04:03:36;98415.25;;;10.30;50.05
64679;BME280;51094;53.864;27.676;2023-04-25T04:06:05;98412.53;;;10.31;50.33
64679;BME280;51094;53.864;27.676;2023-04-25T04:08:38;98428.75;;;10.45;49.80
64679;BME280;51094;53.864;27.676;2023-04-25T04:11:09;98399.81;;;10.28;50.29
64679;BME280;51094;53.864;27.676;2023-04-25T04:13:37;98395.44;;;10.29;50.46
64679;BME280;51094;53.864;27.676;2023-04-25T04:16:05;98382.13;;;10.22;50.40
64679;BME280;51094;53.864;27.676;2023-04-25T04:18:32;98360.16;;;10.15;50.82
64679;BME280;51094;53.864;27.676;2023-04-25T04:21:01;98293.97;;;9.68;49.87
64679;BME280;51094;53.864;27.676;2023-04-25T04:23:30;98420.06;;;10.55;50.58
64679;BME280;51094;53.864;27.676;2023-04-25T04:25:58;98434.88;;;10.64;50.42
64679;BME280;51094;53.864;27.676;2023-04-25T04:28:52;98417.63;;;10.63;49.64
64679;BME280;51094;53.864;27.676;2023-04-25T04:31:37;98363.41;;;10.28;50.32
64679;BME280;51094;53.864;27.676;2023-04-25T04:34:04;98420.94;;;10.65;50.11
64679;BME280;51094;53.864;27.676;2023-04-25T04:36:33;98427.66;;;10.68;50.17
64679;BME280;51094;53.864;27.676;2023-04-25T04:39:00;98392.59;;;10.62;49.75
64679;BME280;51094;53.864;27.676;2023-04-25T04:41:34;98425.09;;;10.78;49.84
64679;BME280;51094;53.864;27.676;2023-04-25T04:44:11;98342.69;;;10.38;49.22
64679;BME280;51094;53.864;27.676;2023-04-25T04:46:45;98370.53;;;10.57;49.66
64679;BME280;51094;53.864;27.676;2023-04-25T04:49:39;98346.31;;;10.56;49.67
64679;BME280;51094;53.864;27.676;2023-04-25T04:52:30;98402.75;;;11.06;49.78
64679;BME280;51094;53.864;27.676;2023-04-25T04:55:17;98416.88;;;11.13;49.73
64679;BME280;51094;53.864;27.676;2023-04-25T04:58:02;98404.94;;;11.00;49.32
64679;BME280;51094;53.864;27.676;2023-04-25T05:00:47;98412.22;;;11.07;49.32
64679;BME280;51094;53.864;27.676;2023-04-25T05:03:49;98350.75;;;10.65;49.67
64679;BME280;51094;53.864;27.676;2023-04-25T05:06:36;98406.91;;;11.18;49.65
64679;BME280;51094;53.864;27.676;2023-04-25T05:09:32;98363.59;;;11.07;49.27
64679;BME280;51094;53.864;27.676;2023-04-25T05:12:05;98420.25;;;11.44;49.17
64679;BME280;51094;53.864;27.676;2023-04-25T05:14:51;98413.31;;;11.63;48.84
64679;BME280;51094;53.864;27.676;2023-04-25T05:17:36;98411.94;;;11.69;49.00
64679;BME280;51094;53.864;27.676;2023-04-25T05:20:15;98428.13;;;11.92;48.67
64679;BME280;51094;53.864;27.676;2023-04-25T05:23:00;98424.03;;;11.99;48.84
64679;BME280;51094;53.864;27.676;2023-04-25T05:25:53;98435.25;;;11.90;48.58
64679;BME280;51094;53.864;27.676;2023-04-25T05:28:30;98437.47;;;11.94;48.63
64679;BME280;51094;53.864;27.676;2023-04-25T05:31:09;98436.63;;;11.84;49.49
64679;BME280;51094;53.864;27.676;2023-04-25T05:33:59;98441.66;;;11.76;49.88
64679;BME280;51094;53.864;27.676;2023-04-25T05:36:36;98372.81;;;11.30;49.65
64679;BME280;51094;53.864;27.676;2023-04-25T05:39:03;98385.81;;;11.30;50.35
64679;BME280;51094;53.864;27.676;2023-04-25T05:41:49;98386.09;;;11.27;51.06
64679;BME280;51094;53.864;27.676;2023-04-25T05:44:34;98416.94;;;11.42;50.80
64679;BME280;51094;53.864;27.676;2023-04-25T05:47:15;98426.56;;;11.51;51.19
64679;BME280;51094;53.864;27.676;2023-04-25T05:49:56;98463.72;;;11.72;50.92
64679;BME280;51094;53.864;27.676;2023-04-25T05:52:33;98449.47;;;11.76;51.38
64679;BME280;51094;53.864;27.676;2023-04-25T05:55:11;98434.94;;;11.74;51.81
64679;BME280;51094;53.864;27.676;2023-04-25T05:57:38;98399.97;;;11.47;51.69
64679;BME280;51094;53.864;27.676;2023-04-25T06:00:12;98473.50;;;11.80;51.77
64679;BME280;51094;53.864;27.676;2023-04-25T06:02:40;98390.63;;;11.35;53.22
64679;BME280;51094;53.864;27.676;2023-04-25T06:05:08;98414.31;;;11.32;53.42
64679;BME280;51094;53.864;27.676;2023-04-25T06:07:36;98422.56;;;11.37;54.02
64679;BME280;51094;53.864;27.676;2023-04-25T06:10:03;98433.84;;;11.57;54.52
64679;BME280;51094;53.864;27.676;2023-04-25T06:12:35;98432.75;;;11.59;54.63
64679;BME280;51094;53.864;27.676;2023-04-25T06:15:04;98452.22;;;11.65;55.33
64679;BME280;51094;53.864;27.676;2023-04-25T06:17:49;98440.59;;;11.69;55.82
64679;BME280;51094;53.864;27.676;2023-04-25T06:20:19;98428.41;;;11.79;55.50
64679;BME280;51094;53.864;27.676;2023-04-25T06:22:51;98425.94;;;11.97;55.94
64679;BME280;51094;53.864;27.676;2023-04-25T06:25:20;98383.31;;;11.88;56.73
64679;BME280;51094;53.864;27.676;2023-04-25T06:27:47;98335.72;;;11.67;56.64
64679;BME280;51094;53.864;27.676;2023-04-25T06:30:15;98396.56;;;12.14;57.11
64679;BME280;51094;53.864;27.676;2023-04-25T06:32:45;98328.03;;;11.75;57.30
64679;BME280;51094;53.864;27.676;2023-04-25T06:35:11;98398.22;;;12.25;57.23
64679;BME280;51094;53.864;27.676;2023-04-25T06:37:39;98347.53;;;11.81;58.79
64679;BME280;51094;53.864;27.676;2023-04-25T06:40:07;98403.28;;;12.17;57.74
64679;BME280;51094;53.864;27.676;2023-04-25T06:42:35;98392.44;;;12.21;58.07
64679;BME280;51094;53.864;27.676;2023-04-25T06:45:21;98401.91;;;12.32;57.98
64679;BME280;51094;53.864;27.676;2023-04-25T06:47:48;98399.16;;;12.43;57.73
64679;BME280;51094;53.864;27.676;2023-04-25T06:50:15;98393.78;;;12.54;57.50
64679;BME280;51094;53.864;27.676;2023-04-25T06:52:45;98359.78;;;12.37;57.64
64679;BME280;51094;53.864;27.676;2023-04-25T06:55:14;98386.31;;;12.59;57.80
64679;BME280;51094;53.864;27.676;2023-04-25T06:57:56;98366.34;;;12.50;57.91
64679;BME280;51094;53.864;27.676;2023-04-25T07:00:41;98392.91;;;12.63;59.38
64679;BME280;51094;53.864;27.676;2023-04-25T07:03:08;98354.84;;;12.33;58.87
64679;BME280;51094;53.864;27.676;2023-04-25T07:05:39;98386.25;;;12.42;59.54
64679;BME280;51094;53.864;27.676;2023-04-25T07:08:06;98337.50;;;12.05;60.30
64679;BME280;51094;53.864;27.676;2023-04-25T07:10:32;98344.09;;;11.99;59.91
64679;BME280;51094;53.864;27.676;2023-04-25T07:13:03;98338.34;;;11.86;59.76
64679;BME280;51094;53.864;27.676;2023-04-25T07:15:31;98350.81;;;11.92;61.05
64679;BME280;51094;53.864;27.676;2023-04-25T07:17:59;98383.44;;;12.06;60.54
64679;BME280;51094;53.864;27.676;2023-04-25T07:21:04;98400.69;;;12.17;59.95
64679;BME280;51094;53.864;27.676;2023-04-25T07:23:33;98407.28;;;12.21;60.40
64679;BME280;51094;53.864;27.676;2023-04-25T07:26:07;98398.13;;;11.97;61.27
64679;BME280;51094;53.864;27.676;2023-04-25T07:28:34;98428.16;;;12.02;61.79
64679;BME280;51094;53.864;27.676;2023-04-25T07:31:01;98384.63;;;11.54;62.43
64679;BME280;51094;53.864;27.676;2023-04-25T07:33:31;98341.84;;;11.27;62.63
64679;BME280;51094;53.864;27.676;2023-04-25T07:35:57;98330.97;;;10.93;64.23
64679;BME280;51094;53.864;27.676;2023-04-25T07:38:24;98425.50;;;11.13;66.83
64679;BME280;51094;53.864;27.676;2023-04-25T07:40:53;98425.59;;;11.02;68.07
64679;BME280;51094;53.864;27.676;2023-04-25T07:43:21;98425.44;;;10.94;68.80
64679;BME280;51094;53.864;27.676;2023-04-25T07:45:54;98333.06;;;10.29;68.44
64679;BME280;51094;53.864;27.676;2023-04-25T07:48:23;98408.75;;;10.66;69.46
64679;BME280;51094;53.864;27.676;2023-04-25T07:50:57;98394.81;;;10.67;71.16
64679;BME280;51094;53.864;27.676;2023-04-25T07:53:27;98302.97;;;10.26;70.96
64679;BME280;51094;53.864;27.676;2023-04-25T07:56:01;98355.59;;;10.80;69.85
64679;BME280;51094;53.864;27.676;2023-04-25T07:58:31;98363.81;;;10.94;69.28
64679;BME280;51094;53.864;27.676;2023-04-25T08:01:04;98363.88;;;11.04;68.97
64679;BME280;51094;53.864;27.676;2023-04-25T08:03:51;98337.56;;;10.97;69.54
64679;BME280;51094;53.864;27.676;2023-04-25T08:06:22;98316.19;;;10.94;69.63
64679;BME280;51094;53.864;27.676;2023-04-25T08:09:06;98306.38;;;11.36;68.93
64679;BME280;51094;53.864;27.676;2023-04-25T08:11:38;98292.16;;;11.59;67.59
64679;BME280;51094;53.864;27.676;2023-04-25T08:14:07;98368.56;;;12.36;66.41
64679;BME280;51094;53.864;27.676;2023-04-25T08:16:34;98356.94;;;12.57;66.47
64679;BME280;51094;53.864;27.676;2023-04-25T08:19:02;98363.72;;;12.87;66.16
64679;BME280;51094;53.864;27.676;2023-04-25T08:21:29;98366.34;;;13.05;65.25
64679;BME280;51094;53.864;27.676;2023-04-25T08:24:02;98359.72;;;13.20;65.82
64679;BME280;51094;53.864;27.676;2023-04-25T08:26:33;98359.06;;;13.36;64.37
64679;BME280;51094;53.864;27.676;2023-04-25T08:29:01;98339.22;;;13.43;64.65
64679;BME280;51094;53.864;27.676;2023-04-25T08:31:28;98272.91;;;13.18;62.30
64679;BME280;51094;53.864;27.676;2023-04-25T08:34:05;98357.41;;;13.88;62.17
64679;BME280;51094;53.864;27.676;2023-04-25T08:36:46;98310.94;;;14.00;61.67
64679;BME280;51094;53.864;27.676;2023-04-25T08:39:19;98360.31;;;14.81;60.26
64679;BME280;51094;53.864;27.676;2023-04-25T08:42:11;98271.13;;;14.40;58.98
64679;BME280;51094;53.864;27.676;2023-04-25T08:44:39;98360.97;;;14.83;59.46
64679;BME280;51094;53.864;27.676;2023-04-25T08:47:06;98368.16;;;14.73;59.14
64679;BME280;51094;53.864;27.676;2023-04-25T08:49:45;98301.31;;;14.26;59.86
64679;BME280;51094;53.864;27.676;2023-04-25T08:52:13;98372.00;;;14.60;59.37
64679;BME280;51094;53.864;27.676;2023-04-25T08:54:52;98366.25;;;14.57;59.66
64679;BME280;51094;53.864;27.676;2023-04-25T08:57:21;98352.72;;;14.61;59.01
64679;BME280;51094;53.864;27.676;2023-04-25T08:59:49;98367.94;;;15.00;59.49
64679;BME280;51094;53.864;27.676;2023-04-25T09:02:18;98314.38;;;14.86;58.71
64679;BME280;51094;53.864;27.676;2023-04-25T09:04:50;98371.00;;;15.46;59.68
64679;BME280;51094;53.864;27.676;2023-04-25T09:07:18;98367.97;;;15.91;58.68
64679;BME280;51094;53.864;27.676;2023-04-25T09:09:47;98298.66;;;15.69;55.49
64679;BME280;51094;53.864;27.676;2023-04-25T09:12:21;98311.78;;;15.93;56.72
64679;BME280;51094;53.864;27.676;2023-04-25T09:15:10;98377.91;;;16.52;57.27
64679;BME280;51094;53.864;27.676;2023-04-25T09:17:58;98264.66;;;16.33;57.17
64679;BME280;51094;53.864;27.676;2023-04-25T09:20:31;98254.88;;;16.57;56.67
64679;BME280;51094;53.864;27.676;2023-04-25T09:23:11;98340.25;;;17.23;55.52
64679;BME280;51094;53.864;27.676;2023-04-25T09:25:40;98295.50;;;17.09;53.06
64679;BME280;51094;53.864;27.676;2023-04-25T09:28:11;98333.38;;;17.45;54.49
64679;BME280;51094;53.864;27.676;2023-04-25T09:30:38;98249.16;;;17.16;54.56
64679;BME280;51094;53.864;27.676;2023-04-25T09:33:10;98343.00;;;18.36;53.04
64679;BME280;51094;53.864;27.676;2023-04-25T09:35:43;98336.88;;;18.58;51.35
64679;BME280;51094;53.864;27.676;2023-04-25T09:38:19;98265.88;;;18.36;52.88
64679;BME280;51094;53.864;27.676;2023-04-25T09:40:56;98302.25;;;18.91;49.68
64679;BME280;51094;53.864;27.676;2023-04-25T09:43:38;98333.22;;;19.40;49.67
64679;BME280;51094;53.864;27.676;2023-04-25T09:46:11;98274.72;;;19.30;48.35
64679;BME280;51094;53.864;27.676;2023-04-25T09:48:49;98313.34;;;19.58;48.30
64679;BME280;51094;53.864;27.676;2023-04-25T09:51:25;98222.13;;;19.21;44.13
64679;BME280;51094;53.864;27.676;2023-04-25T09:53:54;98321.38;;;19.72;44.55
64679;BME280;51094;53.864;27.676;2023-04-25T09:56:41;98321.06;;;19.60;43.68
64679;BME280;51094;53.864;27.676;2023-04-25T09:59:09;98286.16;;;19.58;43.91
64679;BME280;51094;53.864;27.676;2023-04-25T10:01:39;98316.34;;;20.26;42.52
64679;BME280;51094;53.864;27.676;2023-04-25T10:04:20;98290.13;;;20.52;43.33
64679;BME280;51094;53.864;27.676;2023-04-25T10:07:07;98307.09;;;21.25;42.19
64679;BME280;51094;53.864;27.676;2023-04-25T10:09:39;98219.78;;;21.06;41.83
64679;BME280;51094;53.864;27.676;2023-04-25T10:12:07;98273.00;;;21.64;42.95
64679;BME280;51094;53.864;27.676;2023-04-25T10:14:35;98291.75;;;22.08;41.22
64679;BME280;51094;53.864;27.676;2023-04-25T10:17:02;98258.97;;;22.03;40.33
64679;BME280;51094;53.864;27.676;2023-04-25T10:19:29;98261.81;;;22.08;40.82
64679;BME280;51094;53.864;27.676;2023-04-25T10:22:14;98300.13;;;22.89;39.95
64679;BME280;51094;53.864;27.676;2023-04-25T10:24:44;98281.97;;;23.31;37.27
64679;BME280;51094;53.864;27.676;2023-04-25T10:27:14;98203.03;;;23.27;39.31
64679;BME280;51094;53.864;27.676;2023-04-25T10:29:43;98266.91;;;24.06;36.09
64679;BME280;51094;53.864;27.676;2023-04-25T10:32:10;98246.41;;;24.13;32.38
64679;BME280;51094;53.864;27.676;2023-04-25T10:34:43;98256.28;;;24.06;32.45
64679;BME280;51094;53.864;27.676;2023-04-25T10:37:13;98196.16;;;23.44;31.68
64679;BME280;51094;53.864;27.676;2023-04-25T10:39:41;98211.13;;;23.63;32.45
64679;BME280;51094;53.864;27.676;2023-04-25T10:42:09;98274.19;;;23.93;32.05
64679;BME280;51094;53.864;27.676;2023-04-25T10:44:37;98277.81;;;24.41;31.29
64679;BME280;51094;53.864;27.676;2023-04-25T10:47:07;98258.00;;;24.92;30.15
64679;BME280;51094;53.864;27.676;2023-04-25T10:49:41;98279.22;;;24.99;29.05
64679;BME280;51094;53.864;27.676;2023-04-25T10:52:25;98277.88;;;24.35;28.36
64679;BME280;51094;53.864;27.676;2023-04-25T10:54:57;98266.41;;;23.03;28.93
64679;BME280;51094;53.864;27.676;2023-04-25T11:00:00;98261.81;;;24.05;29.83
64679;BME280;51094;53.864;27.676;2023-04-25T11:02:31;98214.88;;;24.90;27.83
64679;BME280;51094;53.864;27.676;2023-04-25T11:04:58;98218.41;;;25.44;28.50
64679;BME280;51094;53.864;27.676;2023-04-25T11:07:44;98251.94;;;26.22;25.57
64679;BME280;51094;53.864;27.676;2023-04-25T11:10:33;98238.06;;;25.01;25.96
64679;BME280;51094;53.864;27.676;2023-04-25T11:13:03;98238.81;;;24.90;27.45
64679;BME280;51094;53.864;27.676;2023-04-25T11:15:30;98230.38;;;24.93;28.21
64679;BME280;51094;53.864;27.676;2023-04-25T11:18:03;98246.03;;;24.53;27.81
64679;BME280;51094;53.864;27.676;2023-04-25T11:20:30;98244.19;;;22.98;29.09
64679;BME280;51094;53.864;27.676;2023-04-25T11:23:00;98240.66;;;22.01;30.55
64679;BME280;51094;53.864;27.676;2023-04-25T11:25:36;98174.00;;;20.72;32.46
64679;BME280;51094;53.864;27.676;2023-04-25T11:28:07;98237.81;;;20.76;33.14
64679;BME280;51094;53.864;27.676;2023-04-25T11:30:34;98241.53;;;20.47;34.43
64679;BME280;51094;53.864;27.676;2023-04-25T11:33:06;98240.78;;;20.25;34.72
64679;BME280;51094;53.864;27.676;2023-04-25T11:35:33;98240.66;;;20.05;35.83
64679;BME280;51094;53.864;27.676;2023-04-25T11:38:01;98220.84;;;19.60;37.00
64679;BME280;51094;53.864;27.676;2023-04-25T11:40:30;98214.06;;;19.08;36.75
64679;BME280;51094;53.864;27.676;2023-04-25T11:43:00;98196.53;;;18.43;37.83
64679;BME280;51094;53.864;27.676;2023-04-25T11:45:32;98287.72;;;18.21;37.90
64679;BME280;51094;53.864;27.676;2023-04-25T11:48:01;98173.00;;;16.70;40.68
64679;BME280;51094;53.864;27.676;2023-04-25T11:50:28;98323.47;;;16.46;44.84
64679;BME280;51094;53.864;27.676;2023-04-25T11:52:56;98282.88;;;15.20;48.83
64679;BME280;51094;53.864;27.676;2023-04-25T11:55:23;98122.13;;;13.38;52.81
64679;BME280;51094;53.864;27.676;2023-04-25T11:57:50;98280.09;;;13.78;54.72
64679;BME280;51094;53.864;27.676;2023-04-25T12:00:21;98278.81;;;13.38;55.71
64679;BME280;51094;53.864;27.676;2023-04-25T12:02:54;98203.53;;;13.16;54.50
64679;BME280;51094;53.864;27.676;2023-04-25T12:05:30;98264.41;;;13.78;52.60
64679;BME280;51094;53.864;27.676;2023-04-25T12:08:13;98106.81;;;13.17;53.84
64679;BME280;51094;53.864;27.676;2023-04-25T12:10:42;98246.41;;;14.26;52.79
64679;BME280;51094;53.864;27.676;2023-04-25T12:13:19;98253.75;;;14.57;50.32
64679;BME280;51094;53.864;27.676;2023-04-25T12:15:48;98249.44;;;14.90;50.13
64679;BME280;51094;53.864;27.676;2023-04-25T12:18:23;98243.91;;;15.25;48.97
64679;BME280;51094;53.864;27.676;2023-04-25T12:20:54;98235.13;;;15.59;48.87
64679;BME280;51094;53.864;27.676;2023-04-25T12:23:29;98211.34;;;15.93;50.19
64679;BME280;51094;53.864;27.676;2023-04-25T12:25:57;98132.44;;;18.15;48.33
64679;BME280;51094;53.864;27.676;2023-04-25T12:28:25;98182.16;;;23.62;40.09
64679;BME280;51094;53.864;27.676;2023-04-25T12:33:25;98095.19;;;28.20;29.24
64679;BME280;51094;53.864;27.676;2023-04-25T12:35:54;98176.13;;;30.66;26.78
64679;BME280;51094;53.864;27.676;2023-04-25T12:38:25;98182.44;;;33.41;22.09
64679;BME280;51094;53.864;27.676;2023-04-25T12:40:53;98199.34;;;34.33;19.00
64679;BME280;51094;53.864;27.676;2023-04-25T12:43:20;98147.69;;;34.64;17.41
64679;BME280;51094;53.864;27.676;2023-04-25T12:45:49;98151.72;;;35.04;16.38
64679;BME280;51094;53.864;27.676;2023-04-25T12:48:20;98193.09;;;34.99;16.42
64679;BME280;51094;53.864;27.676;2023-04-25T12:50:48;98190.56;;;33.99;17.79
64679;BME280;51094;53.864;27.676;2023-04-25T12:53:20;98077.59;;;32.43;16.57
64679;BME280;51094;53.864;27.676;2023-04-25T12:55:48;98148.06;;;32.45;17.32
64679;BME280;51094;53.864;27.676;2023-04-25T12:58:19;98183.19;;;31.94;17.05
64679;BME280;51094;53.864;27.676;2023-04-25T13:00:47;98099.13;;;30.92;19.46
64679;BME280;51094;53.864;27.676;2023-04-25T13:03:14;98177.25;;;31.05;20.75
64679;BME280;51094;53.864;27.676;2023-04-25T13:05:41;98123.25;;;30.61;20.58
64679;BME280;51094;53.864;27.676;2023-04-25T13:08:08;98158.84;;;29.94;19.74
64679;BME280;51094;53.864;27.676;2023-04-25T13:10:35;98159.09;;;30.40;21.02
64679;BME280;51094;53.864;27.676;2023-04-25T13:13:06;98160.53;;;30.58;21.03
64679;BME280;51094;53.864;27.676;2023-04-25T13:15:33;98121.91;;;30.79;19.30
64679;BME280;51094;53.864;27.676;2023-04-25T13:18:03;98147.44;;;30.92;19.93
64679;BME280;51094;53.864;27.676;2023-04-25T13:20:32;98072.28;;;31.12;18.88